createdAt,value
2023-05-12T00:00:22.315Z,9.52
2023-05-12T00:03:05.967Z,9.49
2023-05-12T00:05:50.680Z,9.52
2023-05-12T00:08:34.328Z,9.54
2023-05-12T00:11:18.045Z,9.56
2023-05-12T00:14:01.662Z,9.50
2023-05-12T00:16:45.009Z,9.46
2023-05-12T00:19:28.349Z,9.40
2023-05-12T00:22:13.050Z,9.49
2023-05-12T00:24:56.552Z,9.49
2023-05-12T00:27:40.117Z,9.54
2023-05-12T00:30:23.608Z,9.46
2023-05-12T00:33:07.090Z,9.39
2023-05-12T00:35:50.362Z,9.44
2023-05-12T00:38:37.427Z,9.31
2023-05-12T00:41:20.833Z,9.28
2023-05-12T00:44:04.347Z,9.23
2023-05-12T00:46:47.836Z,9.17
2023-05-12T00:49:31.788Z,9.09
2023-05-12T00:52:20.500Z,9.04
2023-05-12T00:55:06.931Z,9.08
2023-05-12T00:57:50.142Z,9.18
2023-05-12T01:00:33.339Z,9.11
2023-05-12T01:03:18.601Z,9.21
2023-05-12T01:06:09.295Z,9.22
2023-05-12T01:08:53.403Z,9.18
2023-05-12T01:11:38.326Z,9.20
2023-05-12T01:14:21.550Z,9.24
2023-05-12T01:17:11.516Z,9.15
2023-05-12T01:19:59.870Z,8.86
2023-05-12T01:22:44.214Z,8.93
2023-05-12T01:25:30.216Z,8.92
2023-05-12T01:28:15.835Z,8.84
2023-05-12T01:31:00.145Z,8.95
2023-05-12T01:33:43.731Z,9.01
2023-05-12T01:36:26.967Z,8.88
2023-05-12T01:39:10.456Z,8.89
2023-05-12T01:41:53.752Z,8.78
2023-05-12T01:44:39.154Z,8.68
2023-05-12T01:47:22.515Z,8.70
2023-05-12T01:50:07.065Z,8.69
2023-05-12T01:52:50.641Z,8.56
2023-05-12T01:55:34.672Z,8.57
2023-05-12T01:58:19.518Z,8.63
2023-05-12T02:01:04.625Z,8.55
2023-05-12T02:03:48.385Z,8.52
2023-05-12T02:06:32.883Z,8.44
2023-05-12T02:09:16.132Z,8.50
2023-05-12T02:11:59.409Z,8.34
2023-05-12T02:14:42.602Z,8.33
2023-05-12T02:17:28.940Z,8.28
2023-05-12T02:20:13.228Z,8.25
2023-05-12T02:22:56.433Z,8.27
2023-05-12T02:25:39.635Z,8.32
2023-05-12T02:28:22.934Z,8.15
2023-05-12T02:31:06.071Z,7.97
2023-05-12T02:33:51.770Z,8.06
2023-05-12T02:36:34.961Z,7.96
2023-05-12T02:39:19.301Z,7.84
2023-05-12T02:42:02.497Z,7.60
2023-05-12T02:44:45.616Z,7.61
2023-05-12T02:47:31.453Z,7.65
2023-05-12T02:50:16.823Z,7.65
2023-05-12T02:53:00.064Z,7.64
2023-05-12T02:55:43.347Z,7.55
2023-05-12T02:58:26.670Z,7.58
2023-05-12T03:01:11.512Z,7.53
2023-05-12T03:03:55.421Z,7.45
2023-05-12T03:06:40.266Z,7.36
2023-05-12T03:09:24.000Z,7.47
2023-05-12T03:12:08.123Z,7.41
2023-05-12T03:14:51.440Z,7.32
2023-05-12T03:17:34.725Z,7.37
2023-05-12T03:20:18.437Z,7.31
2023-05-12T03:23:03.925Z,7.33
2023-05-12T03:25:47.056Z,7.28
2023-05-12T03:28:30.251Z,7.17
2023-05-12T03:31:13.649Z,7.16
2023-05-12T03:33:56.811Z,7.09
2023-05-12T03:36:41.073Z,7.16
2023-05-12T03:39:25.741Z,7.13
2023-05-12T03:42:09.112Z,7.08
2023-05-12T03:44:52.475Z,7.11
2023-05-12T03:47:36.427Z,7.07
2023-05-12T03:50:20.372Z,7.14
2023-05-12T03:53:03.924Z,7.07
2023-05-12T03:55:51.235Z,7.15
2023-05-12T03:58:34.685Z,7.18
2023-05-12T04:01:18.224Z,7.31
2023-05-12T04:04:01.504Z,7.33
2023-05-12T04:06:44.701Z,7.22
2023-05-12T04:09:27.868Z,7.23
2023-05-12T04:12:12.692Z,7.23
2023-05-12T04:14:56.144Z,7.28
2023-05-12T04:17:39.363Z,7.39
2023-05-12T04:20:23.554Z,7.31
2023-05-12T04:23:08.267Z,7.38
2023-05-12T04:25:51.443Z,7.46
2023-05-12T04:28:37.115Z,7.43
2023-05-12T04:31:21.750Z,7.47
2023-05-12T04:34:05.190Z,7.54
2023-05-12T04:36:48.370Z,7.64
2023-05-12T04:39:32.754Z,7.73
2023-05-12T04:42:15.816Z,7.72
2023-05-12T04:45:01.544Z,7.67
2023-05-12T04:47:44.812Z,7.61
2023-05-12T04:50:30.313Z,7.61
2023-05-12T04:53:13.784Z,7.66
2023-05-12T04:55:57.524Z,7.62
2023-05-12T04:58:40.998Z,7.67
2023-05-12T05:01:25.597Z,7.83
2023-05-12T05:04:08.867Z,7.90
2023-05-12T05:06:52.052Z,7.98
2023-05-12T05:09:37.004Z,8.01
2023-05-12T05:12:20.560Z,8.09
2023-05-12T05:15:04.068Z,8.15
2023-05-12T05:17:49.926Z,8.22
2023-05-12T05:20:34.620Z,8.24
2023-05-12T05:23:17.951Z,8.14
2023-05-12T05:26:01.335Z,8.24
2023-05-12T05:28:44.527Z,8.29
2023-05-12T05:31:29.043Z,8.21
2023-05-12T05:34:13.827Z,8.27
2023-05-12T05:36:57.327Z,8.36
2023-05-12T05:39:40.449Z,8.31
2023-05-12T05:42:23.574Z,8.24
2023-05-12T05:45:07.691Z,8.23
2023-05-12T05:47:52.411Z,8.20
2023-05-12T05:50:36.990Z,8.10
2023-05-12T05:53:21.166Z,8.15
2023-05-12T05:56:04.729Z,8.20
2023-05-12T05:58:50.236Z,8.31
2023-05-12T06:01:33.602Z,8.36
2023-05-12T06:04:16.761Z,8.45
2023-05-12T06:07:01.342Z,8.44
2023-05-12T06:09:44.430Z,8.43
2023-05-12T06:12:28.286Z,8.49
2023-05-12T06:15:11.900Z,8.48
2023-05-12T06:17:55.088Z,8.56
2023-05-12T06:20:38.464Z,8.55
2023-05-12T06:23:23.047Z,8.74
2023-05-12T06:26:07.799Z,8.71
2023-05-12T06:28:50.940Z,8.86
2023-05-12T06:31:34.430Z,8.84
2023-05-12T06:34:17.620Z,8.88
2023-05-12T06:37:00.842Z,8.84
2023-05-12T06:39:45.447Z,8.91
2023-05-12T06:42:28.546Z,9.01
2023-05-12T06:45:13.196Z,9.20
2023-05-12T06:47:57.777Z,9.37
2023-05-12T06:50:42.551Z,9.52
2023-05-12T06:53:25.846Z,9.62
2023-05-12T06:56:13.980Z,9.74
2023-05-12T06:59:01.079Z,9.75
2023-05-12T07:01:44.697Z,9.62
2023-05-12T07:04:29.781Z,9.76
2023-05-12T07:07:13.152Z,9.83
2023-05-12T07:09:56.910Z,9.93
2023-05-12T07:13:09.737Z,9.94
2023-05-12T07:15:53.164Z,10.05
2023-05-12T07:18:36.563Z,10.07
2023-05-12T07:21:20.000Z,10.34
2023-05-12T07:24:03.220Z,10.45
2023-05-12T07:26:49.119Z,10.73
2023-05-12T07:29:33.747Z,10.83
2023-05-12T07:32:17.017Z,10.94
2023-05-12T07:35:00.327Z,11.20
2023-05-12T07:37:43.559Z,11.34
2023-05-12T07:40:26.808Z,11.33
2023-05-12T07:43:19.194Z,11.28
2023-05-12T07:46:06.505Z,11.40
2023-05-12T07:48:51.951Z,11.44
2023-05-12T07:51:35.234Z,11.44
2023-05-12T07:54:18.566Z,11.60
2023-05-12T07:57:01.945Z,11.77
2023-05-12T07:59:45.487Z,11.78
2023-05-12T08:02:30.146Z,12.01
2023-05-12T08:05:15.783Z,12.17
2023-05-12T08:07:59.171Z,12.14
2023-05-12T08:10:42.361Z,12.50
2023-05-12T08:13:26.399Z,12.81
2023-05-12T08:16:12.038Z,12.87
2023-05-12T08:18:56.651Z,13.39
2023-05-12T08:21:40.201Z,13.74
2023-05-12T08:24:23.786Z,13.70
2023-05-12T08:27:07.408Z,14.42
2023-05-12T08:29:50.662Z,15.05
2023-05-12T08:32:33.941Z,15.25
2023-05-12T08:35:20.382Z,15.46
2023-05-12T08:38:04.300Z,15.21
2023-05-12T08:40:55.435Z,15.31
2023-05-12T08:43:45.099Z,15.61
2023-05-12T08:46:28.479Z,15.80
2023-05-12T08:49:15.891Z,15.80
2023-05-12T08:52:02.683Z,15.25
2023-05-12T08:54:55.577Z,15.47
2023-05-12T08:57:39.841Z,15.32
2023-05-12T09:00:25.770Z,15.31
2023-05-12T09:03:09.648Z,14.95
2023-05-12T09:05:52.967Z,14.67
2023-05-12T09:08:39.625Z,14.68
2023-05-12T09:11:24.173Z,14.12
2023-05-12T09:14:11.417Z,14.22
2023-05-12T09:17:00.530Z,13.96
2023-05-12T09:19:43.756Z,14.34
2023-05-12T09:22:30.345Z,14.61
2023-05-12T09:25:19.598Z,14.86
2023-05-12T09:28:03.194Z,14.87
2023-05-12T09:30:46.393Z,15.04
2023-05-12T09:33:29.472Z,15.33
2023-05-12T09:36:17.334Z,15.47
2023-05-12T09:39:04.692Z,15.50
2023-05-12T09:41:49.363Z,16.10
2023-05-12T09:44:33.984Z,16.94
2023-05-12T09:47:17.707Z,17.42
2023-05-12T09:50:03.025Z,17.94
2023-05-12T09:52:48.741Z,18.05
2023-05-12T09:55:34.351Z,17.65
2023-05-12T09:58:20.510Z,18.08
2023-05-12T10:01:21.010Z,17.75
2023-05-12T10:04:09.175Z,17.98
2023-05-12T10:06:53.845Z,18.55
2023-05-12T10:09:41.446Z,19.73
2023-05-12T10:12:24.694Z,20.53
2023-05-12T10:15:11.787Z,20.33
2023-05-12T10:17:56.969Z,21.15
2023-05-12T10:20:41.638Z,22.50
2023-05-12T10:23:26.909Z,23.77
2023-05-12T10:26:11.624Z,26.62
2023-05-12T10:28:55.159Z,27.49
2023-05-12T10:31:41.837Z,23.79
2023-05-12T10:34:25.067Z,23.62
2023-05-12T10:37:14.426Z,25.80
2023-05-12T10:40:01.228Z,24.55
2023-05-12T10:42:44.448Z,25.82
2023-05-12T10:45:27.938Z,24.23
2023-05-12T10:48:17.231Z,23.79
2023-05-12T10:51:08.540Z,22.90
2023-05-12T10:54:01.177Z,21.98
2023-05-12T10:56:45.387Z,22.73
2023-05-12T10:59:29.231Z,22.60
2023-05-12T11:02:18.587Z,22.77
2023-05-12T11:05:07.356Z,22.47
2023-05-12T11:07:52.447Z,21.76
2023-05-12T11:10:36.183Z,21.87
2023-05-12T11:13:20.239Z,20.87
2023-05-12T11:16:03.521Z,20.45
2023-05-12T11:18:46.996Z,19.88
2023-05-12T11:21:33.054Z,19.86
2023-05-12T11:24:16.826Z,19.32
2023-05-12T11:27:00.300Z,19.04
2023-05-12T11:29:45.167Z,18.53
2023-05-12T11:32:30.005Z,18.50
2023-05-12T11:35:15.638Z,18.47
2023-05-12T11:38:00.312Z,18.36
2023-05-12T11:40:44.140Z,18.55
2023-05-12T11:43:29.806Z,18.64
2023-05-12T11:46:12.956Z,18.76
2023-05-12T11:48:57.440Z,18.45
2023-05-12T11:51:44.114Z,18.28
2023-05-12T11:54:30.659Z,17.98
2023-05-12T11:57:13.845Z,17.31
2023-05-12T12:00:01.986Z,17.27
2023-05-12T12:02:45.263Z,17.04
2023-05-12T12:05:28.476Z,17.02
2023-05-12T12:08:14.461Z,16.98
2023-05-12T12:11:01.366Z,16.89
2023-05-12T12:13:52.890Z,16.99
2023-05-12T12:16:37.507Z,17.00
2023-05-12T12:19:20.823Z,16.33
2023-05-12T12:22:04.093Z,16.17
2023-05-12T12:24:47.375Z,15.79
2023-05-12T12:27:34.803Z,15.65
2023-05-12T12:30:18.295Z,15.82
2023-05-12T12:33:01.604Z,15.90
2023-05-12T12:35:44.768Z,15.86
2023-05-12T12:38:27.901Z,15.70
2023-05-12T12:41:11.083Z,15.70
2023-05-12T12:43:55.691Z,15.74
2023-05-12T12:46:38.899Z,15.67
2023-05-12T12:49:22.135Z,15.66
2023-05-12T12:52:05.986Z,15.52
2023-05-12T12:54:49.203Z,15.47
2023-05-12T12:57:32.753Z,15.25
2023-05-12T13:00:18.445Z,15.19
2023-05-12T13:03:01.856Z,14.91
2023-05-12T13:05:45.218Z,14.96
2023-05-12T13:08:28.527Z,14.79
2023-05-12T13:11:12.316Z,14.68
2023-05-12T13:13:55.525Z,15.25
2023-05-12T13:16:40.352Z,15.53
2023-05-12T13:19:23.656Z,15.95
2023-05-12T13:22:07.286Z,16.16
2023-05-12T13:24:50.517Z,16.03
2023-05-12T13:27:34.307Z,15.82
2023-05-12T13:30:17.603Z,15.60
2023-05-12T13:33:04.400Z,15.77
2023-05-12T13:35:49.634Z,15.50
2023-05-12T13:38:34.000Z,15.22
2023-05-12T13:41:17.327Z,15.36
2023-05-12T13:44:00.645Z,15.31
2023-05-12T13:46:44.012Z,15.12
2023-05-12T13:49:28.651Z,15.26
2023-05-12T13:52:12.143Z,15.34
2023-05-12T13:54:55.790Z,15.65
2023-05-12T13:57:39.065Z,15.61
2023-05-12T14:00:22.698Z,15.47
2023-05-12T14:03:06.121Z,15.39
2023-05-12T14:05:50.762Z,15.33
2023-05-12T14:08:34.036Z,15.38
2023-05-12T14:11:17.490Z,15.34
2023-05-12T14:14:01.589Z,15.47
2023-05-12T14:16:44.926Z,15.33
2023-05-12T14:19:31.039Z,15.44
2023-05-12T14:22:25.639Z,15.42
2023-05-12T14:25:10.325Z,15.62
2023-05-12T14:27:53.974Z,15.79
2023-05-12T14:30:39.973Z,15.58
2023-05-12T14:33:23.326Z,16.13
2023-05-12T14:36:08.695Z,16.17
2023-05-12T14:38:53.979Z,15.94
2023-05-12T14:41:37.349Z,15.73
2023-05-12T14:44:20.706Z,15.84
2023-05-12T14:47:03.849Z,15.76
2023-05-12T14:49:47.283Z,15.79
2023-05-12T14:52:31.356Z,15.97
2023-05-12T14:55:17.647Z,15.94
2023-05-12T14:58:03.842Z,15.92
2023-05-12T15:00:47.596Z,15.82
2023-05-12T15:03:31.089Z,15.42
2023-05-12T15:06:16.388Z,15.52
2023-05-12T15:08:59.913Z,15.52
2023-05-12T15:11:45.431Z,15.37
2023-05-12T15:14:28.586Z,15.15
2023-05-12T15:17:12.319Z,15.16
2023-05-12T15:19:56.384Z,15.25
2023-05-12T15:22:40.175Z,15.07
2023-05-12T15:25:23.377Z,14.92
2023-05-12T15:28:08.506Z,14.86
2023-05-12T15:30:57.290Z,14.54
2023-05-12T15:33:40.840Z,14.49
2023-05-12T15:36:24.316Z,14.45
2023-05-12T15:39:07.729Z,14.28
2023-05-12T15:41:54.566Z,14.25
2023-05-12T15:44:39.252Z,14.04
2023-05-12T15:47:22.863Z,13.94
2023-05-12T15:50:06.862Z,13.78
2023-05-12T15:52:50.115Z,13.66
2023-05-12T15:55:33.727Z,13.49
2023-05-12T15:58:17.100Z,13.36
2023-05-12T16:01:01.793Z,13.30
2023-05-12T16:03:45.477Z,13.28
2023-05-12T16:06:28.916Z,13.31
2023-05-12T16:09:13.846Z,13.16
2023-05-12T16:11:57.534Z,13.15
2023-05-12T16:14:41.120Z,13.02
2023-05-12T16:17:26.096Z,12.99
2023-05-12T16:20:10.991Z,12.97
2023-05-12T16:22:55.099Z,12.87
2023-05-12T16:25:38.618Z,12.78
2023-05-12T16:28:22.078Z,12.75
2023-05-12T16:31:08.520Z,12.51
2023-05-12T16:33:53.660Z,12.47
2023-05-12T16:36:40.519Z,12.34
2023-05-12T16:39:24.022Z,12.32
2023-05-12T16:42:07.708Z,12.24
2023-05-12T16:44:51.969Z,12.12
2023-05-12T16:47:35.691Z,12.07
2023-05-12T16:50:20.334Z,12.03
2023-05-12T16:53:03.697Z,11.89
2023-05-12T16:55:46.885Z,11.88
2023-05-12T16:58:32.437Z,11.86
2023-05-12T17:01:15.939Z,11.73
2023-05-12T17:03:59.508Z,11.78
2023-05-12T17:06:46.576Z,11.58
2023-05-12T17:09:29.797Z,11.60
2023-05-12T17:12:14.403Z,11.57
2023-05-12T17:15:06.850Z,11.41
2023-05-12T17:17:51.549Z,11.20
2023-05-12T17:20:34.932Z,11.23
2023-05-12T17:23:19.478Z,11.18
2023-05-12T17:26:03.021Z,11.20
2023-05-12T17:28:46.681Z,11.06
2023-05-12T17:31:30.643Z,10.94
2023-05-12T17:34:13.913Z,10.88
2023-05-12T17:36:57.361Z,11.01
2023-05-12T17:39:44.373Z,10.99
2023-05-12T17:42:31.430Z,10.91
2023-05-12T17:45:15.947Z,10.92
2023-05-12T17:47:59.652Z,10.88
2023-05-12T17:50:47.051Z,10.79
2023-05-12T17:53:30.573Z,10.76
2023-05-12T17:56:15.428Z,10.81
2023-05-12T17:58:59.918Z,10.75
2023-05-12T18:01:43.466Z,10.72
2023-05-12T18:04:26.716Z,10.68
2023-05-12T18:07:09.844Z,10.56
2023-05-12T18:09:55.506Z,10.50
2023-05-12T18:12:40.130Z,10.56
2023-05-12T18:15:24.984Z,10.47
2023-05-12T18:18:08.792Z,10.39
2023-05-12T18:20:52.247Z,10.34
2023-05-12T18:23:41.022Z,10.27
2023-05-12T18:26:24.385Z,10.19
2023-05-12T18:29:11.635Z,10.03
2023-05-12T18:31:55.068Z,10.00
2023-05-12T18:34:38.459Z,9.95
2023-05-12T18:37:22.987Z,9.97
2023-05-12T18:40:07.069Z,9.92
2023-05-12T18:42:52.011Z,9.90
2023-05-12T18:45:40.345Z,9.90
2023-05-12T18:48:23.647Z,10.00
2023-05-12T18:51:06.935Z,9.96
2023-05-12T18:53:50.509Z,9.90
2023-05-12T18:56:34.541Z,9.99
2023-05-12T18:59:17.867Z,9.96
2023-05-12T19:02:03.026Z,9.90
2023-05-12T19:04:47.916Z,10.03
2023-05-12T19:07:31.352Z,10.04
2023-05-12T19:10:14.541Z,10.15
2023-05-12T19:12:57.867Z,9.95
2023-05-12T19:15:40.972Z,10.02
2023-05-12T19:18:25.692Z,10.07
2023-05-12T19:21:09.177Z,10.20
2023-05-12T19:23:52.506Z,10.14
2023-05-12T19:26:35.618Z,10.14
2023-05-12T19:29:18.903Z,10.10
2023-05-12T19:32:02.411Z,10.04
2023-05-12T19:34:46.951Z,9.96
2023-05-12T19:37:33.471Z,9.90
2023-05-12T19:40:16.871Z,9.82
2023-05-12T19:43:00.034Z,9.68
2023-05-12T19:45:43.545Z,9.59
2023-05-12T19:48:26.827Z,9.50
2023-05-12T19:51:11.418Z,9.42
2023-05-12T19:53:54.498Z,9.35
2023-05-12T19:56:38.961Z,9.29
2023-05-12T19:59:22.660Z,9.20
2023-05-12T20:02:06.651Z,9.23
2023-05-12T20:04:49.958Z,9.31
2023-05-12T20:07:35.009Z,9.32
2023-05-12T20:10:18.320Z,9.34
2023-05-12T20:13:05.286Z,9.42
2023-05-12T20:15:49.525Z,9.38
2023-05-12T20:18:34.294Z,9.33
2023-05-12T20:21:17.912Z,9.28
2023-05-12T20:24:02.674Z,9.18
2023-05-12T20:26:45.879Z,9.10
2023-05-12T20:29:30.402Z,9.12
2023-05-12T20:32:14.456Z,9.14
2023-05-12T20:34:58.061Z,9.25
2023-05-12T20:37:41.453Z,9.35
2023-05-12T20:40:26.184Z,9.43
2023-05-12T20:43:13.571Z,9.69
2023-05-12T20:45:56.863Z,9.70
2023-05-12T20:48:41.335Z,9.66
2023-05-12T20:51:27.772Z,9.74
2023-05-12T20:54:11.005Z,9.79
2023-05-12T20:56:56.207Z,9.83
2023-05-12T20:59:39.621Z,9.73
2023-05-12T21:02:23.243Z,9.80
2023-05-12T21:05:08.129Z,9.72
2023-05-12T21:07:51.546Z,9.69
2023-05-12T21:10:39.407Z,9.56
2023-05-12T21:13:24.033Z,9.55
2023-05-12T21:16:07.651Z,9.46
2023-05-12T21:18:50.960Z,9.32
2023-05-12T21:21:34.221Z,9.39
2023-05-12T21:24:17.892Z,9.43
2023-05-12T21:27:04.288Z,9.45
2023-05-12T21:29:48.995Z,9.40
2023-05-12T21:32:32.477Z,9.52
2023-05-12T21:35:15.877Z,9.50
2023-05-12T21:38:02.084Z,9.51
2023-05-12T21:40:45.771Z,9.48
2023-05-12T21:43:28.835Z,9.53
2023-05-12T21:46:13.550Z,9.57
2023-05-12T21:48:56.785Z,9.58
2023-05-12T21:51:40.205Z,9.54
2023-05-12T21:54:24.568Z,9.61
2023-05-12T21:57:08.466Z,9.78
2023-05-12T21:59:51.838Z,9.66
2023-05-12T22:02:37.448Z,9.77
2023-05-12T22:05:21.134Z,9.94
2023-05-12T22:08:04.360Z,10.02
2023-05-12T22:10:47.781Z,10.06
2023-05-12T22:13:31.010Z,10.08
2023-05-12T22:16:14.288Z,10.11
2023-05-12T22:18:59.169Z,10.22
2023-05-12T22:21:44.797Z,10.19
2023-05-12T22:24:28.063Z,10.18
2023-05-12T22:27:11.241Z,10.27
2023-05-12T22:29:55.702Z,10.18
2023-05-12T22:32:39.065Z,10.24
2023-05-12T22:35:23.833Z,10.29
2023-05-12T22:38:07.054Z,10.18
2023-05-12T22:40:50.559Z,10.18
2023-05-12T22:43:34.245Z,10.09
2023-05-12T22:46:17.442Z,10.13
2023-05-12T22:49:01.229Z,10.04
2023-05-12T22:51:46.446Z,10.04
2023-05-12T22:54:30.149Z,10.04
2023-05-12T22:57:13.331Z,10.02
2023-05-12T22:59:57.122Z,10.03
2023-05-12T23:02:40.525Z,10.02
2023-05-12T23:05:24.009Z,10.05
2023-05-12T23:08:09.022Z,9.96
2023-05-12T23:10:52.493Z,9.95
2023-05-12T23:13:35.987Z,9.82
2023-05-12T23:16:19.472Z,9.77
2023-05-12T23:19:02.787Z,9.66
2023-05-12T23:21:45.961Z,9.60
2023-05-12T23:24:30.557Z,9.54
2023-05-12T23:27:13.876Z,9.52
2023-05-12T23:29:57.289Z,9.53
2023-05-12T23:32:41.685Z,9.51
2023-05-12T23:35:25.090Z,9.46
2023-05-12T23:38:08.362Z,9.47
2023-05-12T23:40:52.963Z,9.42
2023-05-12T23:43:36.492Z,9.36
2023-05-12T23:46:19.714Z,9.38
2023-05-12T23:49:02.984Z,9.34
2023-05-12T23:51:46.395Z,9.38
2023-05-12T23:54:30.193Z,9.32
2023-05-12T23:57:14.981Z,9.34
2023-05-12T23:59:58.432Z,9.24
